This is the latest recevied weather packets stored in our database for station/object KC4GS-13. If no packets are shown the sender has not sent any weather packets the latest 10 day(s).
| Time | Temp. | Humidity | Pressure | Rain* | Wind** | Luminosity | Snow |
|---|---|---|---|---|---|---|---|
| 1787694667 | 35° C | 42% | 1016.2 hPa | 0 mm | - | 63 W/m² | - |
| 1787694362 | 35° C | 42% | 1016.3 hPa | 0 mm | - | 132 W/m² | - |
| 1787694057 | 35° C | 42% | 1016.1 hPa | 0 mm | - | 347 W/m² | - |
| 1787693754 | 35.56° C | 42% | 1016.2 hPa | 0 mm | - | 374 W/m² | - |
| 1787693449 | 35° C | 43% | 1016.2 hPa | 0 mm | - | 393 W/m² | - |
| 1787693146 | 35° C | 42% | 1016.1 hPa | 0 mm | - | 418 W/m² | - |
| 1787692841 | 35° C | 42% | 1016.1 hPa | 0 mm | - | 439 W/m² | - |
| 1787692536 | 35.56° C | 42% | 1016.3 hPa | 0 mm | - | 450 W/m² | - |
| 1787692235 | 35.56° C | 42% | 1016.4 hPa | 0 mm | - | 460 W/m² | - |
| 1787691931 | 35.56° C | 43% | 1016.2 hPa | 0 mm | - | 472 W/m² | - |
| 1787691630 | 35.56° C | 42% | 1016.3 hPa | 0 mm | - | 499 W/m² | - |
| 1787691327 | 36.11° C | 42% | 1016.3 hPa | 0 mm | - | 512 W/m² | - |
| 1787691023 | 35.56° C | 43% | 1016.3 hPa | 0 mm | - | 510 W/m² | - |
| 1787690718 | 35.56° C | 43% | 1016.4 hPa | 0 mm | - | 511 W/m² | - |
| 1787690412 | 35° C | 44% | 1016.3 hPa | 0 mm | - | 533 W/m² | - |
| 1787690109 | 35° C | 45% | 1016.1 hPa | 0 mm | - | 572 W/m² | - |
| 1787689804 | 35° C | 44% | 1016.4 hPa | 0 mm | - | 222 W/m² | - |
| 1787689499 | 35.56° C | 44% | 1016 hPa | 0 mm | - | 581 W/m² | - |
| 1787689194 | 35° C | 45% | 1016.2 hPa | 0 mm | - | 564 W/m² | - |
| 1787688890 | 35° C | 45% | 1016.5 hPa | 0 mm | - | 509 W/m² | - |
| 1787688586 | 35° C | 45% | 1016.4 hPa | 0 mm | - | 605 W/m² | - |
| 1787688285 | 35° C | 45% | 1016.5 hPa | 0 mm | - | 645 W/m² | - |
| 1787687980 | 35° C | 44% | 1016.5 hPa | 0 mm | - | 658 W/m² | - |
| 1787687676 | 35° C | 45% | 1016.4 hPa | 0 mm | - | 655 W/m² | - |
| 1787687371 | 34.44° C | 46% | 1016.7 hPa | 0 mm | - | 682 W/m² | - |
* Rain latest hour (hover to see other rain measurements)
** Current wind speed in m/s (hover to see current wind gust speed)